Time;durP1;ratioP1;P1;durP2;ratioP2;P2;SDS_P1;SDS_P2;PMS_P1;PMS_P2;Temp;Humidity;BMP_temperature;BMP_pressure;BME280_temperature;BME280_humidity;BME280_pressure;Samples;Min_cycle;Max_cycle;Signal;HPM_P1;HPM_P2
2022/10/23 00:01:21;;;;;;;8.30;5.20;;;16.30;99.90;;;;;;5019516;28;20215;-64
2022/10/23 00:03:50;;;;;;;8.77;5.33;;;16.30;99.90;;;;;;5012988;28;20447;-63
2022/10/23 00:06:16;;;;;;;7.47;4.90;;;16.30;99.90;;;;;;5019355;28;20431;-63
2022/10/23 00:08:42;;;;;;;9.70;5.03;;;16.20;99.90;;;;;;5021526;28;20942;-63
2022/10/23 00:11:13;;;;;;;8.30;5.30;;;16.20;99.90;;;;;;5023981;28;20208;-62
2022/10/23 00:13:38;;;;;;;7.73;5.33;;;16.20;99.90;;;;;;5023547;28;20462;-62
2022/10/23 00:16:05;;;;;;;6.03;4.60;;;16.20;99.90;;;;;;5022099;28;20442;-63
2022/10/23 00:18:30;;;;;;;10.13;4.80;;;16.20;99.90;;;;;;5022523;28;20284;-62
2022/10/23 00:20:56;;;;;;;6.53;4.43;;;16.20;99.90;;;;;;5022057;28;20557;-63
2022/10/23 00:23:22;;;;;;;8.87;5.57;;;16.10;99.90;;;;;;5024223;28;20713;-63
2022/10/23 00:25:47;;;;;;;13.50;5.87;;;16.10;99.90;;;;;;5015006;28;20204;-63
2022/10/23 00:28:13;;;;;;;10.50;4.57;;;16.10;99.90;;;;;;5017000;28;20344;-63
2022/10/23 00:30:39;;;;;;;7.03;5.10;;;16.00;99.90;;;;;;5012378;28;20204;-63
2022/10/23 00:33:05;;;;;;;8.67;5.03;;;16.00;99.90;;;;;;5013735;28;20650;-63
2022/10/23 00:35:30;;;;;;;5.90;4.70;;;16.00;99.90;;;;;;5025404;28;20672;-63
2022/10/23 00:37:56;;;;;;;8.17;5.10;;;16.00;99.90;;;;;;5015576;28;20511;-63
2022/10/23 00:40:21;;;;;;;10.70;5.70;;;16.00;99.90;;;;;;5022861;28;20226;-63
2022/10/23 00:42:47;;;;;;;10.70;5.20;;;16.00;99.90;;;;;;5031918;28;20218;-63
2022/10/23 00:45:22;;;;;;;7.70;5.80;;;16.00;99.90;;;;;;5007170;28;20204;-64
2022/10/23 00:47:48;;;;;;;18.70;5.10;;;15.90;99.90;;;;;;5020963;28;20275;-63
2022/10/23 00:50:15;;;;;;;10.77;5.47;;;15.90;99.90;;;;;;5017950;28;20930;-63
2022/10/23 00:52:47;;;;;;;7.53;5.10;;;15.90;99.90;;;;;;5021688;28;20885;-63
2022/10/23 00:55:14;;;;;;;6.43;5.53;;;15.90;99.90;;;;;;5016427;28;20470;-63
2022/10/23 00:57:42;;;;;;;8.03;4.87;;;15.80;99.90;;;;;;5023659;28;20775;-63
2022/10/23 01:00:10;;;;;;;8.33;5.23;;;15.80;99.90;;;;;;5017245;28;20488;-64
2022/10/23 01:02:36;;;;;;;9.80;5.13;;;15.80;99.90;;;;;;5007400;28;20442;-66
2022/10/23 01:05:02;;;;;;;9.10;5.30;;;15.80;99.90;;;;;;5018877;28;20802;-63
2022/10/23 01:07:53;;;;;;;7.87;4.50;;;15.80;99.90;;;;;;5010693;28;20215;-63
2022/10/23 01:10:23;;;;;;;7.50;4.93;;;15.80;99.90;;;;;;5013415;28;20267;-63
2022/10/23 01:12:59;;;;;;;13.43;5.63;;;15.80;99.90;;;;;;5014171;28;20436;-63
2022/10/23 01:15:47;;;;;;;8.83;5.57;;;15.80;99.90;;;;;;5022760;28;20476;-64
2022/10/23 01:18:24;;;;;;;10.37;5.37;;;15.70;99.90;;;;;;5021156;28;20479;-63
2022/10/23 01:20:59;;;;;;;8.53;4.87;;;15.70;99.90;;;;;;5021500;28;20853;-63
2022/10/23 01:23:46;;;;;;;7.40;5.10;;;15.70;99.90;;;;;;5023160;28;21141;-64
2022/10/23 01:26:36;;;;;;;9.90;5.97;;;15.70;99.90;;;;;;5024452;28;20707;-64
2022/10/23 01:29:33;;;;;;;14.27;6.33;;;15.70;99.90;;;;;;5020163;28;20461;-63
2022/10/23 01:32:08;;;;;;;10.83;6.40;;;15.70;99.90;;;;;;5022700;28;20467;-64
2022/10/23 01:34:53;;;;;;;12.53;6.37;;;15.70;99.90;;;;;;5025081;28;20463;-63
2022/10/23 01:37:25;;;;;;;12.23;6.30;;;15.60;99.90;;;;;;5023945;28;20947;-63
2022/10/23 01:39:54;;;;;;;8.80;6.13;;;15.50;99.90;;;;;;5020192;28;20432;-64
2022/10/23 01:42:27;;;;;;;9.83;6.47;;;15.50;99.90;;;;;;5013903;28;20453;-64
2022/10/23 01:45:08;;;;;;;11.63;6.57;;;15.50;99.90;;;;;;5022389;28;20429;-63
2022/10/23 01:47:35;;;;;;;10.73;5.63;;;15.40;99.90;;;;;;5005316;28;20979;-62
2022/10/23 01:50:04;;;;;;;7.07;5.73;;;15.30;99.90;;;;;;5027791;28;20783;-63
2022/10/23 01:52:30;;;;;;;5.77;4.93;;;15.30;99.90;;;;;;5021969;28;20461;-63
2022/10/23 01:54:59;;;;;;;8.13;6.00;;;15.30;99.90;;;;;;5024985;28;20963;-63
2022/10/23 01:57:28;;;;;;;9.43;5.80;;;15.30;99.90;;;;;;5018028;28;20791;-63
2022/10/23 02:00:06;;;;;;;10.13;6.00;;;15.30;99.90;;;;;;5020254;28;20935;-63
2022/10/23 02:02:34;;;;;;;10.13;5.77;;;15.30;99.90;;;;;;5022487;28;21315;-63
2022/10/23 02:05:05;;;;;;;9.37;6.00;;;15.30;99.90;;;;;;5020873;28;20462;-63
2022/10/23 02:07:32;;;;;;;9.50;5.80;;;15.30;99.90;;;;;;5024734;28;20485;-63
2022/10/23 02:09:58;;;;;;;11.47;5.13;;;15.20;99.90;;;;;;5025380;28;20467;-63
2022/10/23 02:12:43;;;;;;;6.07;5.03;;;15.30;99.90;;;;;;5025142;28;20533;-63
2022/10/23 02:15:24;;;;;;;7.33;5.30;;;15.30;99.90;;;;;;5022554;28;20537;-63
2022/10/23 02:18:08;;;;;;;7.80;4.73;;;15.30;99.90;;;;;;5021029;28;20423;-64
2022/10/23 02:20:39;;;;;;;8.57;5.30;;;15.20;99.90;;;;;;5027282;28;20470;-63
2022/10/23 02:23:21;;;;;;;5.80;4.50;;;15.20;99.90;;;;;;5020152;28;20409;-63
2022/10/23 02:25:54;;;;;;;6.87;4.30;;;15.20;99.90;;;;;;5021014;28;20442;-63
2022/10/23 02:28:25;;;;;;;8.33;4.80;;;15.30;99.90;;;;;;5024459;28;20530;-63
2022/10/23 02:30:52;;;;;;;13.43;5.83;;;15.30;99.90;;;;;;5018312;28;20816;-63
2022/10/23 02:33:18;;;;;;;8.43;5.30;;;15.30;99.90;;;;;;5025664;28;20415;-63
2022/10/23 02:35:45;;;;;;;9.17;4.63;;;15.30;99.90;;;;;;5022174;28;20478;-63
2022/10/23 02:38:36;;;;;;;6.73;4.83;;;15.30;99.90;;;;;;5026758;28;20874;-63
2022/10/23 02:41:23;;;;;;;10.83;4.77;;;15.30;99.90;;;;;;5025255;28;21322;-63
2022/10/23 02:44:16;;;;;;;10.27;4.87;;;15.30;99.90;;;;;;5021046;28;20435;-63
2022/10/23 02:47:02;;;;;;;10.83;5.60;;;15.30;99.90;;;;;;5023193;28;20424;-62
2022/10/23 02:49:42;;;;;;;8.00;5.10;;;15.30;99.90;;;;;;5005880;28;20431;-63
2022/10/23 02:52:49;;;;;;;10.17;6.37;;;15.30;99.90;;;;;;5025742;28;20859;-64
2022/10/23 02:55:44;;;;;;;10.77;5.27;;;15.30;99.90;;;;;;5023106;28;20754;-64
2022/10/23 02:58:20;;;;;;;7.53;4.40;;;15.30;99.90;;;;;;5019998;28;20940;-62
2022/10/23 03:00:52;;;;;;;8.00;5.57;;;15.30;99.90;;;;;;5023947;28;20449;-62
2022/10/23 03:03:36;;;;;;;6.73;4.20;;;15.30;99.90;;;;;;5023210;28;20442;-63
2022/10/23 03:06:02;;;;;;;12.27;4.13;;;15.20;99.90;;;;;;5020417;28;20442;-63
2022/10/23 03:08:28;;;;;;;6.80;4.33;;;15.20;99.90;;;;;;5025029;28;20436;-62
2022/10/23 03:10:54;;;;;;;4.87;4.20;;;15.20;99.90;;;;;;5007585;28;20493;-62
2022/10/23 03:13:19;;;;;;;8.67;4.03;;;15.20;99.90;;;;;;5020598;28;20243;-63
2022/10/23 03:15:45;;;;;;;5.00;3.90;;;15.20;99.90;;;;;;5023909;28;20584;-63
2022/10/23 03:18:10;;;;;;;11.90;4.70;;;15.20;99.90;;;;;;5026348;28;20779;-63
2022/10/23 03:20:36;;;;;;;8.23;4.00;;;15.20;99.90;;;;;;5022391;28;20623;-63
2022/10/23 03:23:02;;;;;;;13.13;4.13;;;15.20;99.90;;;;;;5022786;28;20311;-62
2022/10/23 03:25:27;;;;;;;5.60;4.00;;;15.20;99.90;;;;;;5023565;28;20265;-62
2022/10/23 03:27:53;;;;;;;7.57;4.53;;;15.20;99.90;;;;;;5003536;28;20199;-62
2022/10/23 03:30:18;;;;;;;14.70;3.80;;;15.20;99.90;;;;;;5027835;28;20181;-63
2022/10/23 03:32:44;;;;;;;9.00;3.77;;;15.20;99.90;;;;;;5025361;28;20176;-62
2022/10/23 03:35:10;;;;;;;4.40;3.33;;;15.20;99.90;;;;;;5024097;28;20235;-61
2022/10/23 03:37:35;;;;;;;6.23;3.60;;;15.20;99.90;;;;;;5020037;28;20184;-64
2022/10/23 03:40:01;;;;;;;8.73;3.77;;;15.20;99.90;;;;;;5027959;28;20185;-62
2022/10/23 03:42:26;;;;;;;7.17;3.90;;;15.30;99.90;;;;;;5025372;28;20689;-63
2022/10/23 03:44:52;;;;;;;7.10;4.03;;;15.30;99.90;;;;;;5023860;28;20856;-63
2022/10/23 03:47:17;;;;;;;7.80;4.07;;;15.40;99.90;;;;;;5023524;28;20207;-63
2022/10/23 03:49:43;;;;;;;5.53;3.70;;;15.40;99.90;;;;;;5028614;28;20195;-62
2022/10/23 03:52:09;;;;;;;9.63;4.53;;;15.40;99.90;;;;;;5021264;28;20204;-63
2022/10/23 03:54:34;;;;;;;9.30;4.30;;;15.40;99.90;;;;;;5008478;28;20208;-62
2022/10/23 03:57:00;;;;;;;10.97;4.57;;;15.50;99.90;;;;;;5023203;28;20188;-62
2022/10/23 03:59:26;;;;;;;9.33;4.60;;;15.50;99.90;;;;;;5004412;28;20551;-62
2022/10/23 04:01:52;;;;;;;9.00;4.37;;;15.50;99.90;;;;;;5020503;28;20192;-62
2022/10/23 04:04:18;;;;;;;6.63;4.43;;;15.50;99.90;;;;;;5018479;28;20430;-62
2022/10/23 04:06:44;;;;;;;5.90;4.73;;;15.50;99.90;;;;;;5023426;28;20443;-62
2022/10/23 04:09:10;;;;;;;7.53;4.53;;;15.50;99.90;;;;;;5019649;28;20384;-63
2022/10/23 04:11:35;;;;;;;12.00;5.43;;;15.50;99.90;;;;;;5020399;28;20208;-62
2022/10/23 04:14:01;;;;;;;7.27;4.90;;;15.50;99.90;;;;;;5002394;28;20445;-64
2022/10/23 04:16:27;;;;;;;8.10;4.67;;;15.60;99.90;;;;;;5021359;28;20185;-63
2022/10/23 04:18:52;;;;;;;5.73;4.67;;;15.60;99.90;;;;;;5006924;28;20262;-64
2022/10/23 04:21:18;;;;;;;8.93;5.37;;;15.60;99.90;;;;;;5003211;28;20243;-64
2022/10/23 04:23:44;;;;;;;5.07;4.20;;;15.60;99.90;;;;;;5019506;28;20219;-63
2022/10/23 04:26:09;;;;;;;7.63;3.87;;;15.70;99.90;;;;;;5023519;28;20732;-63
2022/10/23 04:28:35;;;;;;;8.50;5.07;;;15.70;99.90;;;;;;5020340;28;20188;-63
2022/10/23 04:31:00;;;;;;;6.47;4.50;;;15.60;99.90;;;;;;5024647;28;20204;-63
2022/10/23 04:33:26;;;;;;;6.43;4.50;;;15.70;99.90;;;;;;5018149;28;20184;-63
2022/10/23 04:35:52;;;;;;;5.97;4.23;;;15.60;99.90;;;;;;5019808;28;20217;-63
2022/10/23 04:38:17;;;;;;;9.83;5.13;;;15.70;99.90;;;;;;5019980;28;20826;-63
2022/10/23 04:40:43;;;;;;;8.23;4.33;;;15.70;99.90;;;;;;5022936;28;20208;-63
2022/10/23 04:43:08;;;;;;;7.07;3.90;;;15.70;99.90;;;;;;5019530;28;20193;-63
2022/10/23 04:45:34;;;;;;;11.10;4.30;;;15.70;99.90;;;;;;5005713;28;20189;-63
2022/10/23 04:47:59;;;;;;;5.97;5.00;;;15.70;99.90;;;;;;5022858;28;22373;-63
2022/10/23 04:50:25;;;;;;;7.37;5.27;;;15.70;99.90;;;;;;5005448;28;20707;-63
2022/10/23 04:52:55;;;;;;;12.33;6.40;;;15.70;99.90;;;;;;5021255;28;20238;-63
2022/10/23 04:55:21;;;;;;;7.83;5.10;;;15.70;99.90;;;;;;5017411;28;20882;-63
2022/10/23 04:57:46;;;;;;;5.77;4.70;;;15.70;99.90;;;;;;5017533;28;20440;-63
2022/10/23 05:00:14;;;;;;;6.73;4.90;;;15.70;99.90;;;;;;5023267;28;20184;-63
2022/10/23 05:02:40;;;;;;;7.43;5.00;;;15.70;99.90;;;;;;5015178;28;20870;-62
2022/10/23 05:05:06;;;;;;;6.47;4.30;;;15.70;99.90;;;;;;5020093;28;20466;-62
2022/10/23 05:07:33;;;;;;;5.97;4.33;;;15.70;99.90;;;;;;5019355;28;20189;-62
2022/10/23 05:09:58;;;;;;;8.60;5.00;;;15.80;99.90;;;;;;5020424;28;20738;-62
2022/10/23 05:12:25;;;;;;;7.53;5.10;;;15.80;99.90;;;;;;5017774;28;20466;-62
2022/10/23 05:14:51;;;;;;;5.90;5.00;;;15.70;99.90;;;;;;5021949;28;20224;-64
2022/10/23 05:17:22;;;;;;;8.17;4.60;;;15.70;99.90;;;;;;5021401;28;20470;-63
2022/10/23 05:19:54;;;;;;;9.20;4.60;;;15.70;99.90;;;;;;5018009;28;20195;-64
2022/10/23 05:22:24;;;;;;;5.70;4.60;;;15.70;99.90;;;;;;5017055;28;20494;-63
2022/10/23 05:24:50;;;;;;;6.03;4.80;;;15.70;99.90;;;;;;5020436;28;20423;-63
2022/10/23 05:27:15;;;;;;;8.87;5.57;;;15.70;99.90;;;;;;5007952;28;20474;-63
2022/10/23 05:29:41;;;;;;;9.00;5.30;;;15.60;99.90;;;;;;5019579;28;20191;-63
2022/10/23 05:32:09;;;;;;;12.63;5.40;;;15.60;99.90;;;;;;5023550;28;20574;-63
2022/10/23 05:34:37;;;;;;;12.50;7.70;;;15.60;99.90;;;;;;5023282;28;20302;-63
2022/10/23 05:37:04;;;;;;;11.13;5.87;;;15.50;99.90;;;;;;5023775;28;20439;-63
2022/10/23 05:39:31;;;;;;;9.23;4.90;;;15.50;99.90;;;;;;5021857;28;20435;-64
2022/10/23 05:41:57;;;;;;;11.17;5.27;;;15.50;99.90;;;;;;5023180;28;20466;-64
2022/10/23 05:44:22;;;;;;;9.50;4.77;;;15.50;99.90;;;;;;5023917;28;20443;-63
2022/10/23 05:46:48;;;;;;;9.80;4.50;;;15.40;99.90;;;;;;5009570;28;20549;-64
2022/10/23 05:49:13;;;;;;;8.63;4.47;;;15.40;99.90;;;;;;5020888;28;20267;-63
2022/10/23 05:51:40;;;;;;;7.47;4.40;;;15.40;99.90;;;;;;5022325;28;20196;-63
2022/10/23 05:54:08;;;;;;;4.97;4.17;;;15.40;99.90;;;;;;5028321;28;20535;-63
2022/10/23 05:56:35;;;;;;;5.03;3.70;;;15.40;99.90;;;;;;5027529;28;20803;-63
2022/10/23 05:59:01;;;;;;;10.73;4.03;;;15.30;99.90;;;;;;5009572;28;21006;-64
2022/10/23 06:01:27;;;;;;;16.70;5.10;;;15.30;99.90;;;;;;5026320;28;20435;-63
2022/10/23 06:03:52;;;;;;;6.37;4.13;;;15.30;99.90;;;;;;5023261;28;20184;-64
2022/10/23 06:06:18;;;;;;;5.63;3.50;;;15.30;99.90;;;;;;5022993;28;20545;-64
2022/10/23 06:08:44;;;;;;;6.63;3.57;;;15.30;99.90;;;;;;5021304;28;20184;-64
2022/10/23 06:11:12;;;;;;;5.87;4.13;;;15.20;99.90;;;;;;5024401;28;20214;-62
2022/10/23 06:13:38;;;;;;;8.70;4.50;;;15.20;99.90;;;;;;5006477;28;20188;-62
2022/10/23 06:16:12;;;;;;;6.80;4.63;;;15.20;99.90;;;;;;5025366;28;20510;-64
2022/10/23 06:18:38;;;;;;;9.87;5.47;;;15.20;99.90;;;;;;5005938;28;20906;-61
2022/10/23 06:21:04;;;;;;;6.67;4.60;;;15.20;99.90;;;;;;5017453;28;20833;-64
2022/10/23 06:23:31;;;;;;;8.30;4.70;;;15.20;99.90;;;;;;5015104;28;20441;-64
2022/10/23 06:25:57;;;;;;;8.40;4.17;;;15.20;99.90;;;;;;5023868;28;20211;-63
2022/10/23 06:28:22;;;;;;;5.70;4.20;;;15.20;99.90;;;;;;5023839;28;20456;-64
2022/10/23 06:30:48;;;;;;;5.13;4.03;;;15.20;99.90;;;;;;5029967;28;20485;-63
2022/10/23 06:33:13;;;;;;;8.70;4.40;;;15.20;99.90;;;;;;5029902;28;20184;-64
2022/10/23 06:35:39;;;;;;;6.20;3.97;;;15.20;99.90;;;;;;5030801;28;20304;-64
2022/10/23 06:38:05;;;;;;;12.20;5.07;;;15.20;99.90;;;;;;5031197;28;20241;-62
2022/10/23 06:40:30;;;;;;;7.60;4.70;;;15.20;99.90;;;;;;5028088;28;20200;-62
2022/10/23 06:42:56;;;;;;;8.30;4.63;;;15.30;99.90;;;;;;5029348;28;20176;-62
2022/10/23 06:45:22;;;;;;;6.60;4.80;;;15.30;99.90;;;;;;5031704;28;20193;-63
2022/10/23 06:47:51;;;;;;;7.37;5.30;;;15.20;99.90;;;;;;5021589;28;20977;-63
2022/10/23 06:50:17;;;;;;;7.30;4.20;;;15.20;99.90;;;;;;5023098;28;20205;-62
2022/10/23 06:52:42;;;;;;;9.10;5.20;;;15.20;99.90;;;;;;5007157;28;20447;-64
2022/10/23 06:55:08;;;;;;;8.37;5.00;;;15.20;99.90;;;;;;5023314;28;20216;-62
2022/10/23 06:57:34;;;;;;;9.33;4.50;;;15.20;99.90;;;;;;5019179;28;20794;-65
2022/10/23 07:00:00;;;;;;;10.00;4.43;;;15.20;99.90;;;;;;5009062;28;20435;-63
2022/10/23 07:02:25;;;;;;;6.10;4.13;;;15.30;99.90;;;;;;5021374;28;20270;-63
2022/10/23 07:04:51;;;;;;;6.37;4.30;;;15.30;99.90;;;;;;5026236;28;20195;-64
2022/10/23 07:07:16;;;;;;;4.70;3.80;;;15.30;99.90;;;;;;5020455;28;20563;-62
2022/10/23 07:09:42;;;;;;;5.00;3.50;;;15.40;99.90;;;;;;5021694;28;20387;-62
2022/10/23 07:12:07;;;;;;;6.27;3.80;;;15.40;99.90;;;;;;5024047;28;20212;-62
2022/10/23 07:14:33;;;;;;;9.17;4.50;;;15.40;99.90;;;;;;5028439;28;20212;-62
2022/10/23 07:16:58;;;;;;;6.23;4.70;;;15.50;99.90;;;;;;5026969;28;20201;-63
2022/10/23 07:19:24;;;;;;;6.37;4.90;;;15.50;99.90;;;;;;5026106;28;20177;-63
2022/10/23 07:21:50;;;;;;;8.93;4.80;;;15.50;99.90;;;;;;5031159;28;20310;-63
2022/10/23 07:24:16;;;;;;;8.97;5.27;;;15.40;99.90;;;;;;5032001;28;20372;-63
2022/10/23 07:26:43;;;;;;;8.83;4.20;;;15.40;99.90;;;;;;5030267;28;20192;-63
2022/10/23 07:29:10;;;;;;;6.70;4.40;;;15.50;99.90;;;;;;5030749;28;20204;-62
2022/10/23 07:31:35;;;;;;;9.17;5.47;;;15.50;99.90;;;;;;5021610;28;21079;-63
2022/10/23 07:34:01;;;;;;;7.63;5.00;;;15.50;99.90;;;;;;5031451;28;20426;-63
2022/10/23 07:36:27;;;;;;;9.20;4.70;;;15.60;99.90;;;;;;5027346;28;20636;-63
2022/10/23 07:38:52;;;;;;;6.53;4.93;;;15.60;99.90;;;;;;5030614;28;20259;-64
2022/10/23 07:41:18;;;;;;;6.90;4.97;;;15.50;99.90;;;;;;5016374;28;20263;-63
2022/10/23 07:43:44;;;;;;;7.23;5.00;;;15.60;99.90;;;;;;5020251;28;20196;-63
2022/10/23 07:46:09;;;;;;;12.23;5.07;;;15.60;99.90;;;;;;5021316;28;20195;-63
2022/10/23 07:48:36;;;;;;;9.07;5.13;;;15.60;99.90;;;;;;5025085;28;20220;-63
2022/10/23 07:51:07;;;;;;;7.97;5.50;;;15.70;99.90;;;;;;5022757;28;20918;-64
2022/10/23 07:53:33;;;;;;;6.43;4.93;;;15.70;99.90;;;;;;5023764;28;20848;-64
2022/10/23 07:56:01;;;;;;;4.80;4.30;;;15.70;99.90;;;;;;5023111;28;20976;-64
2022/10/23 07:58:28;;;;;;;8.43;5.53;;;15.70;99.90;;;;;;5027027;28;20460;-65
2022/10/23 08:00:57;;;;;;;8.67;5.00;;;15.70;99.90;;;;;;5030243;28;20534;-63
2022/10/23 08:03:24;;;;;;;14.27;5.63;;;15.80;99.90;;;;;;5029062;28;20508;-63
2022/10/23 08:05:52;;;;;;;10.80;6.03;;;15.80;99.90;;;;;;5020189;28;20439;-63
2022/10/23 08:08:17;;;;;;;7.53;5.30;;;15.80;99.90;;;;;;5018606;28;20458;-63
2022/10/23 08:10:45;;;;;;;11.70;5.53;;;15.80;99.90;;;;;;5022346;28;20497;-64
2022/10/23 08:13:12;;;;;;;10.30;5.30;;;15.80;99.90;;;;;;5023222;28;20210;-64
2022/10/23 08:15:39;;;;;;;9.63;6.17;;;15.90;99.90;;;;;;5017424;28;20471;-63
2022/10/23 08:18:05;;;;;;;6.20;5.60;;;15.90;99.90;;;;;;5015592;28;20431;-63
2022/10/23 08:20:30;;;;;;;7.20;5.20;;;15.90;99.90;;;;;;5023824;28;20466;-64
2022/10/23 08:22:56;;;;;;;15.10;6.10;;;15.90;99.90;;;;;;5024975;28;20191;-63
2022/10/23 08:25:21;;;;;;;8.20;4.80;;;15.90;99.90;;;;;;5017223;28;20231;-63
2022/10/23 08:27:47;;;;;;;7.47;5.70;;;15.90;99.90;;;;;;5017875;28;20279;-64
2022/10/23 08:30:12;;;;;;;11.33;6.10;;;16.00;99.90;;;;;;5019568;28;20176;-64
2022/10/23 08:32:38;;;;;;;10.93;6.90;;;15.90;99.90;;;;;;5022532;28;20176;-63
2022/10/23 08:35:04;;;;;;;5.47;4.90;;;16.00;99.90;;;;;;5017848;28;20200;-63
2022/10/23 08:37:30;;;;;;;9.67;5.40;;;16.20;99.90;;;;;;5020606;28;20180;-63
2022/10/23 08:39:55;;;;;;;7.37;5.20;;;16.10;99.90;;;;;;5015619;28;20641;-63
2022/10/23 08:42:24;;;;;;;7.90;4.90;;;16.10;99.90;;;;;;5014434;28;20470;-64
2022/10/23 08:45:22;;;;;;;10.00;4.67;;;16.20;99.90;;;;;;5018984;28;20598;-65
2022/10/23 08:47:54;;;;;;;8.00;4.93;;;16.20;99.90;;;;;;5012728;28;20846;-65
2022/10/23 08:50:28;;;;;;;6.90;4.40;;;16.10;99.90;;;;;;5017804;28;20436;-62
2022/10/23 08:53:09;;;;;;;7.83;5.13;;;16.10;99.90;;;;;;5017589;28;20879;-62
2022/10/23 08:55:39;;;;;;;9.70;4.57;;;16.30;99.90;;;;;;5019030;28;20696;-63
2022/10/23 08:58:13;;;;;;;9.70;5.27;;;16.50;99.90;;;;;;5016628;28;20464;-63
2022/10/23 09:00:41;;;;;;;6.00;4.90;;;16.50;99.90;;;;;;5017865;28;20504;-63
2022/10/23 09:03:10;;;;;;;6.03;5.30;;;16.40;99.90;;;;;;5017564;28;20451;-63
2022/10/23 09:05:53;;;;;;;5.63;4.30;;;16.50;99.90;;;;;;5016287;28;20455;-63
2022/10/23 09:08:34;;;;;;;5.73;4.47;;;16.60;99.90;;;;;;5014621;28;20449;-63
2022/10/23 09:11:09;;;;;;;5.73;4.83;;;16.60;99.90;;;;;;5018870;28;20478;-63
2022/10/23 09:13:57;;;;;;;7.70;5.27;;;16.80;99.90;;;;;;5019725;28;20449;-64
2022/10/23 09:16:34;;;;;;;4.80;4.30;;;16.90;99.90;;;;;;5025197;28;20519;-64
2022/10/23 09:19:00;;;;;;;5.20;4.13;;;17.00;99.90;;;;;;5018203;28;20792;-65
2022/10/23 09:21:27;;;;;;;9.33;4.07;;;17.00;99.90;;;;;;5019061;28;20454;-64
2022/10/23 09:23:53;;;;;;;10.13;3.90;;;17.10;99.90;;;;;;5028678;28;20452;-64
2022/10/23 09:26:19;;;;;;;5.53;4.10;;;17.20;99.90;;;;;;5025363;28;20442;-64
2022/10/23 09:29:06;;;;;;;6.63;3.80;;;17.30;99.90;;;;;;5027982;28;20184;-64
2022/10/23 09:31:31;;;;;;;3.77;3.30;;;17.40;99.90;;;;;;5027354;28;20208;-65
2022/10/23 09:34:00;;;;;;;5.07;3.43;;;17.40;99.90;;;;;;5025406;28;20413;-63
2022/10/23 09:36:28;;;;;;;6.30;3.60;;;17.50;99.90;;;;;;5002945;28;20204;-64
2022/10/23 09:38:57;;;;;;;6.17;4.10;;;17.60;99.90;;;;;;5010099;28;20434;-64
2022/10/23 09:41:41;;;;;;;5.20;4.27;;;17.70;99.90;;;;;;5021318;28;20453;-64
2022/10/23 09:44:07;;;;;;;5.93;3.90;;;17.90;99.90;;;;;;5022627;28;20469;-65
2022/10/23 09:46:39;;;;;;;5.70;4.30;;;18.00;99.90;;;;;;5025649;28;20470;-63
2022/10/23 09:49:06;;;;;;;6.10;3.27;;;18.10;99.90;;;;;;5020548;28;20203;-63
2022/10/23 09:51:33;;;;;;;6.50;4.40;;;18.30;99.90;;;;;;5020391;28;20459;-64
2022/10/23 09:54:00;;;;;;;4.70;3.73;;;18.40;99.90;;;;;;5024398;28;20439;-63
2022/10/23 09:56:27;;;;;;;5.33;3.30;;;18.50;99.90;;;;;;5020771;28;20972;-63
2022/10/23 09:58:55;;;;;;;8.07;4.43;;;18.60;99.90;;;;;;5024483;28;20435;-64
2022/10/23 10:01:26;;;;;;;5.73;3.43;;;18.70;99.90;;;;;;5025556;28;20829;-64
2022/10/23 10:03:52;;;;;;;11.30;4.13;;;18.90;99.90;;;;;;5028715;28;20445;-64
2022/10/23 10:06:29;;;;;;;4.43;3.60;;;19.00;99.90;;;;;;5024062;28;20435;-64
2022/10/23 10:09:15;;;;;;;5.57;3.10;;;19.00;99.90;;;;;;5020443;28;20275;-64
2022/10/23 10:11:48;;;;;;;4.27;3.10;;;19.10;99.90;;;;;;5020203;28;20466;-64
2022/10/23 10:14:47;;;;;;;8.03;3.43;;;19.10;99.90;;;;;;5024842;28;20464;-64
2022/10/23 10:17:40;;;;;;;5.07;3.47;;;19.20;99.90;;;;;;5021921;28;20427;-64
2022/10/23 10:20:24;;;;;;;3.20;2.67;;;19.30;99.90;;;;;;5028505;28;20422;-64
2022/10/23 10:23:01;;;;;;;4.30;2.20;;;19.40;99.90;;;;;;5020655;28;20467;-64
2022/10/23 10:25:42;;;;;;;2.70;2.23;;;19.40;99.90;;;;;;5015259;28;20524;-64
2022/10/23 10:28:47;;;;;;;8.63;2.50;;;19.40;99.90;;;;;;5020502;28;20411;-65
2022/10/23 10:31:32;;;;;;;7.33;2.70;;;19.50;99.90;;;;;;5008939;28;20884;-65
2022/10/23 10:34:28;;;;;;;4.90;3.40;;;19.50;99.90;;;;;;5021159;28;20433;-65
2022/10/23 10:36:56;;;;;;;3.83;3.20;;;19.60;99.90;;;;;;5027091;28;20639;-65
2022/10/23 10:39:36;;;;;;;5.80;2.80;;;19.70;99.90;;;;;;5018305;28;20440;-65
2022/10/23 10:42:22;;;;;;;3.50;3.00;;;19.80;99.90;;;;;;5019016;28;20933;-65
2022/10/23 10:45:24;;;;;;;3.67;2.53;;;19.80;99.90;;;;;;5009170;28;20430;-65
2022/10/23 10:48:24;;;;;;;3.57;2.53;;;19.80;99.90;;;;;;5021142;28;20987;-64
2022/10/23 10:51:22;;;;;;;4.73;2.53;;;19.80;99.90;;;;;;5009427;28;20458;-63
2022/10/23 10:54:15;;;;;;;5.03;2.70;;;19.80;99.90;;;;;;4977213;28;20530;-64
2022/10/23 10:56:43;;;;;;;4.80;2.57;;;19.90;99.90;;;;;;5027024;28;20435;-64
2022/10/23 10:59:18;;;;;;;3.00;2.73;;;20.00;99.90;;;;;;5025454;28;20577;-65
2022/10/23 11:01:51;;;;;;;5.53;2.63;;;20.20;99.90;;;;;;5022660;28;21222;-66
2022/10/23 11:04:31;;;;;;;4.07;2.60;;;20.30;99.90;;;;;;5023100;28;20422;-65
2022/10/23 11:06:58;;;;;;;3.37;2.20;;;20.40;99.90;;;;;;5018383;28;20808;-63
2022/10/23 11:09:29;;;;;;;5.33;2.47;;;20.60;99.90;;;;;;5019665;28;20885;-65
2022/10/23 11:11:55;;;;;;;3.37;2.60;;;20.60;99.90;;;;;;5020837;28;20833;-64
2022/10/23 11:14:22;;;;;;;4.03;2.57;;;20.60;99.90;;;;;;5021309;28;20427;-64
2022/10/23 11:16:57;;;;;;;6.80;3.10;;;20.60;99.90;;;;;;5020163;28;20180;-64
2022/10/23 11:19:29;;;;;;;3.70;3.10;;;20.70;99.90;;;;;;5019397;28;20422;-64
2022/10/23 11:22:07;;;;;;;3.70;2.73;;;20.70;99.90;;;;;;5018595;28;20458;-64
2022/10/23 11:25:01;;;;;;;3.33;2.60;;;20.80;99.90;;;;;;5020375;28;20449;-64
2022/10/23 11:27:57;;;;;;;5.10;2.63;;;20.80;99.90;;;;;;5020310;28;20478;-64
2022/10/23 11:30:49;;;;;;;3.73;2.70;;;20.90;99.90;;;;;;5018848;28;20934;-64
2022/10/23 11:33:30;;;;;;;4.50;2.67;;;20.90;99.90;;;;;;5018461;28;20435;-64
2022/10/23 11:36:14;;;;;;;5.73;2.67;;;21.00;99.90;;;;;;5013705;28;20492;-64
2022/10/23 11:38:42;;;;;;;4.90;3.00;;;21.00;99.90;;;;;;5017150;28;20431;-64
2022/10/23 11:41:24;;;;;;;4.10;2.60;;;21.10;99.90;;;;;;5020744;28;20525;-64
2022/10/23 11:43:56;;;;;;;5.20;2.70;;;21.20;99.90;;;;;;5012496;28;20438;-65
2022/10/23 11:46:24;;;;;;;5.50;2.77;;;21.40;99.90;;;;;;5014912;28;20838;-64
2022/10/23 11:48:50;;;;;;;5.87;2.80;;;21.60;99.90;;;;;;5018548;28;20450;-66
2022/10/23 11:51:34;;;;;;;5.67;2.63;;;21.70;99.90;;;;;;5018240;28;20486;-65
2022/10/23 11:54:12;;;;;;;3.50;2.80;;;22.00;99.90;;;;;;5023735;28;20453;-63
2022/10/23 11:56:55;;;;;;;3.67;2.70;;;22.20;99.90;;;;;;5016694;28;20435;-65
2022/10/23 11:59:32;;;;;;;4.50;2.87;;;22.30;99.90;;;;;;5017955;28;20484;-65
2022/10/23 12:02:16;;;;;;;3.30;2.47;;;22.40;99.90;;;;;;5008873;28;21040;-64
2022/10/23 12:04:53;;;;;;;4.03;2.60;;;22.60;99.90;;;;;;5021593;28;20535;-64
2022/10/23 12:07:33;;;;;;;4.20;2.63;;;22.60;99.90;;;;;;5020500;28;20426;-64
2022/10/23 12:10:22;;;;;;;4.83;2.73;;;22.70;99.90;;;;;;5012526;28;20445;-64
2022/10/23 12:12:59;;;;;;;4.40;2.50;;;22.80;99.90;;;;;;5011851;28;20446;-64
2022/10/23 12:15:26;;;;;;;2.83;2.53;;;23.00;99.90;;;;;;5013352;28;20523;-63
2022/10/23 12:17:54;;;;;;;3.27;2.80;;;23.10;99.90;;;;;;5017107;28;20897;-65
2022/10/23 12:20:51;;;;;;;4.70;3.07;;;23.30;99.90;;;;;;5017575;28;20520;-64
2022/10/23 12:23:57;;;;;;;3.73;2.87;;;23.50;99.90;;;;;;5007846;28;20454;-63
2022/10/23 12:26:51;;;;;;;3.40;2.53;;;23.60;99.90;;;;;;5005946;28;20503;-64
2022/10/23 12:29:41;;;;;;;5.30;2.40;;;23.60;99.90;;;;;;5009279;28;20435;-65
2022/10/23 12:32:28;;;;;;;5.20;2.77;;;23.60;99.90;;;;;;5015365;28;20536;-64
2022/10/23 12:35:09;;;;;;;6.50;2.90;;;23.50;99.90;;;;;;5025627;28;20576;-66
2022/10/23 12:37:40;;;;;;;6.33;2.80;;;23.50;99.90;;;;;;5012115;28;20939;-65
2022/10/23 12:40:08;;;;;;;5.30;2.90;;;23.60;99.90;;;;;;5016243;28;20431;-65
2022/10/23 12:42:35;;;;;;;4.27;2.50;;;23.60;99.90;;;;;;5014662;28;20973;-65
2022/10/23 12:45:16;;;;;;;3.10;2.57;;;23.60;99.90;;;;;;5009990;28;20802;-66
2022/10/23 12:47:43;;;;;;;6.10;3.03;;;23.60;99.90;;;;;;5014757;28;20537;-66
2022/10/23 12:50:24;;;;;;;6.23;2.97;;;23.70;99.90;;;;;;5009147;28;20440;-66
2022/10/23 12:53:02;;;;;;;5.47;4.27;;;23.70;99.90;;;;;;5020371;28;20437;-66
2022/10/23 12:55:47;;;;;;;5.47;3.40;;;23.80;99.90;;;;;;5012047;28;20464;-66
2022/10/23 12:58:21;;;;;;;8.53;4.47;;;23.80;99.90;;;;;;5015919;28;20442;-65
2022/10/23 13:00:55;;;;;;;4.23;3.30;;;23.90;99.90;;;;;;5013605;28;20451;-66
2022/10/23 13:03:23;;;;;;;6.90;3.10;;;23.90;99.90;;;;;;5019867;28;21817;-66
2022/10/23 13:05:51;;;;;;;4.90;4.23;;;24.10;99.90;;;;;;5015051;28;20449;-66
2022/10/23 13:08:18;;;;;;;5.20;3.13;;;24.30;99.90;;;;;;5011718;28;20451;-66